Pagrindinis puslapis
METAR-TAF:

METAR-TAF

Oro uostai :

Hakodate, Japonija

platuma: 41-46N, ilguma: 140-49E, Aukštis: 33 m

Dabartinis oras

Ataskaita buvo paskelbta 22 minutes, ne 03:00 UTC
Vėjas 10 kt iš Vakarų/Šiaurės Vakarų
Temperatūra 4°C
Drėgmė 70%
Slėgis 1006 hPa
Matomumas 10 km arba daugiau
Mažai debesys ne aukštis 1500 ft
Su prošvaistėmis ne aukštis 3000 ft

METAR: RJCH 200300Z 30010KT 9999 FEW015 BKN030 04/M01 Q1006

Laikas: 12:22 (03:22 UTC)

Prognozė

Ataskaita buvo paskelbta 4 valandos ir 9 minutes, ne 23:13 UTC
Prognozė galioja nuo 20 metu 00 UTC su 21 metu 06 UTC
Vėjas 12 kt iš Šiaurės Vakarų
Matomumas 10 km arba daugiau
Mažai debesys ne aukštis 1000 ft
Su prošvaistėmis ne aukštis 2500 ft
Laikinai
nuo 20 metu 12 UTC su 20 metu 18 UTC
Matomumas: 3000 m
sniegas
Laikinai
nuo 21 metu 00 UTC su 21 metu 06 UTC
Matomumas: 3000 m
sniegas

TAF: RJCH 192313Z 2000/2106 31012KT 9999 FEW010 BKN025 TEMPO 2012/2018 3000 -SHSN TEMPO 2100/2106 3000 -SHSN

Orai ataskaitas ir orų prognozės (METAR, TAF).

turimą stotys yra geltonos ir raudonos taškus žemėlapyje.

Perkelti pele per norėdami pamatyti stoties vardą.

Tada spustelėkite, norėdami matyti oro stebėjimo ir prognozės.

Norėdami pakeisti žemėlapį: spustelėkite ant žalios mygtukų su juodo kryžiaus žemyn,; žalią mygtuką su brūkšneliu, jei norite nutolinti; arba žalių rodyklių gretimoms žemėlapius.


METAR-TAF: